Time;durP1;ratioP1;P1;durP2;ratioP2;P2;SDS_P1;SDS_P2;PMS_P1;PMS_P2;Temp;Humidity;BMP_temperature;BMP_pressure;BME280_temperature;BME280_humidity;BME280_pressure;Samples;Min_cycle;Max_cycle;Signal;HPM_P1;HPM_P2
2022/04/12 00:01:20;;;;;;;15.35;2.38;;;20.40;99.90;;;;;;5050326;28;20021;-76
2022/04/12 00:03:48;;;;;;;12.43;2.80;;;20.20;99.90;;;;;;5035206;28;20036;-78
2022/04/12 00:06:15;;;;;;;13.27;2.08;;;20.10;99.90;;;;;;5049077;28;20048;-77
2022/04/12 00:08:42;;;;;;;13.85;1.92;;;20.20;99.90;;;;;;5061401;23;20041;-78
2022/04/12 00:11:10;;;;;;;14.70;2.83;;;20.10;99.90;;;;;;5042791;28;20037;-79
2022/04/12 00:13:37;;;;;;;12.38;1.55;;;20.10;99.90;;;;;;5066786;28;20099;-80
2022/04/12 00:16:04;;;;;;;15.30;2.22;;;20.00;99.90;;;;;;5047873;28;20055;-79
2022/04/12 00:21:17;;;;;;;8.60;1.65;;;19.90;99.90;;;;;;5066528;28;20039;-79
2022/04/12 00:23:44;;;;;;;8.70;2.33;;;20.00;99.90;;;;;;5054074;28;20394;-78
2022/04/12 00:26:12;;;;;;;9.15;1.55;;;20.20;99.90;;;;;;5054347;28;20025;-78
2022/04/12 00:28:41;;;;;;;12.95;2.47;;;20.40;99.90;;;;;;5054318;28;20057;-78
2022/04/12 00:31:09;;;;;;;10.65;2.45;;;20.30;99.90;;;;;;5072708;28;20029;-77
2022/04/12 00:33:37;;;;;;;13.27;2.45;;;20.20;99.90;;;;;;5047506;28;20060;-79
2022/04/12 00:36:06;;;;;;;16.73;3.92;;;20.20;99.90;;;;;;5073112;28;20029;-77
2022/04/12 00:38:35;;;;;;;13.30;2.45;;;20.60;99.90;;;;;;5069139;28;20441;-75
2022/04/12 00:41:05;;;;;;;10.02;2.90;;;21.10;99.90;;;;;;5071717;23;20052;-76
2022/04/12 00:43:36;;;;;;;10.48;2.80;;;21.10;99.90;;;;;;5066383;28;20025;-74
2022/04/12 00:46:04;;;;;;;11.75;3.28;;;20.90;99.90;;;;;;5055884;28;20555;-75
2022/04/12 00:48:32;;;;;;;7.28;1.63;;;20.80;99.90;;;;;;5056513;28;20028;-75
2022/04/12 00:51:01;;;;;;;15.20;3.25;;;20.70;99.90;;;;;;5072339;28;20017;-73
2022/04/12 00:53:29;;;;;;;6.40;1.63;;;20.90;99.90;;;;;;5055977;28;20017;-72
2022/04/12 00:55:57;;;;;;;9.65;2.00;;;21.80;99.90;;;;;;5081185;28;20024;-72
2022/04/12 00:58:24;;;;;;;11.90;2.05;;;21.70;99.90;;;;;;5066558;28;20043;-72
2022/04/12 01:00:52;;;;;;;13.88;2.22;;;21.40;99.90;;;;;;5068035;28;20048;-73
2022/04/12 01:03:19;;;;;;;8.93;2.10;;;21.60;99.90;;;;;;5074531;28;20112;-75
2022/04/12 01:05:49;;;;;;;14.13;1.58;;;21.80;99.90;;;;;;5072310;28;20024;-74
2022/04/12 01:08:17;;;;;;;12.63;2.28;;;21.50;99.90;;;;;;5070506;28;20577;-74
2022/04/12 01:10:46;;;;;;;8.13;1.92;;;21.80;99.90;;;;;;5064177;28;20541;-73
2022/04/12 01:13:13;;;;;;;11.70;1.95;;;22.30;99.90;;;;;;5074397;28;20047;-74
2022/04/12 01:15:42;;;;;;;10.90;2.17;;;22.20;99.90;;;;;;5068818;28;20020;-74
2022/04/12 01:18:10;;;;;;;14.50;1.98;;;22.40;99.90;;;;;;5068574;28;20033;-74
2022/04/12 01:20:38;;;;;;;10.07;1.77;;;22.40;99.90;;;;;;5063647;28;20373;-75
2022/04/12 01:23:22;;;;;;;13.73;1.98;;;22.00;99.90;;;;;;5065540;28;20040;-74
2022/04/12 01:25:49;;;;;;;10.93;1.92;;;21.80;99.90;;;;;;5070224;28;20097;-72
2022/04/12 01:28:17;;;;;;;14.65;2.92;;;22.40;99.90;;;;;;5052821;28;20029;-73
2022/04/12 01:30:44;;;;;;;11.40;2.50;;;22.60;99.90;;;;;;5074119;28;20035;-72
2022/04/12 01:33:11;;;;;;;10.32;1.90;;;22.50;99.90;;;;;;5074581;28;20092;-72
2022/04/12 01:35:40;;;;;;;16.45;3.30;;;22.40;99.90;;;;;;5040733;28;20064;-74
2022/04/12 01:38:07;;;;;;;15.13;2.38;;;22.00;99.90;;;;;;5070316;28;20052;-75
2022/04/12 01:40:34;;;;;;;11.55;1.60;;;22.00;99.90;;;;;;5047757;28;20044;-75
2022/04/12 01:43:02;;;;;;;12.10;2.03;;;22.00;99.90;;;;;;5068259;28;20036;-75
2022/04/12 01:45:32;;;;;;;10.75;2.05;;;22.70;99.90;;;;;;5054822;23;20640;-73
2022/04/12 01:47:59;;;;;;;12.15;1.75;;;22.60;99.90;;;;;;5092810;22;20084;-77
2022/04/12 01:50:27;;;;;;;9.93;2.05;;;22.30;99.90;;;;;;5051880;28;20045;-77
2022/04/12 01:52:54;;;;;;;18.35;2.35;;;22.40;99.90;;;;;;5048695;28;20068;-77
2022/04/12 01:55:21;;;;;;;10.35;1.98;;;22.90;99.90;;;;;;5054075;28;20490;-77
2022/04/12 01:57:50;;;;;;;10.93;1.92;;;22.80;99.90;;;;;;5053863;28;20112;-78
2022/04/12 02:00:17;;;;;;;10.52;2.30;;;22.50;99.90;;;;;;5042187;23;20068;-78
2022/04/12 02:02:45;;;;;;;10.60;1.80;;;22.50;99.90;;;;;;5049899;28;20508;-77
2022/04/12 02:05:12;;;;;;;10.63;1.60;;;22.90;99.90;;;;;;5044843;28;20029;-79
2022/04/12 02:07:45;;;;;;;12.15;1.77;;;23.20;99.90;;;;;;5050977;28;20033;-78
2022/04/12 02:10:13;;;;;;;10.00;2.38;;;22.90;99.90;;;;;;5047745;28;20369;-78
2022/04/12 02:12:40;;;;;;;18.70;2.70;;;22.80;99.90;;;;;;5048769;28;20017;-78
2022/04/12 02:15:08;;;;;;;11.82;1.63;;;23.00;99.90;;;;;;5063792;22;20045;-77
2022/04/12 02:17:35;;;;;;;12.23;1.80;;;23.30;99.90;;;;;;5028159;28;20136;-76
2022/04/12 02:20:03;;;;;;;9.38;2.00;;;23.70;99.90;;;;;;5045549;28;20083;-77
2022/04/12 02:22:30;;;;;;;8.05;1.65;;;23.60;99.90;;;;;;5051814;28;20053;-78
2022/04/12 02:24:57;;;;;;;11.88;2.10;;;23.30;99.90;;;;;;5050569;28;20024;-77
2022/04/12 02:27:25;;;;;;;12.20;2.92;;;22.70;99.90;;;;;;5049277;28;20503;-77
2022/04/12 02:29:52;;;;;;;13.48;2.33;;;22.40;99.90;;;;;;5040298;28;20029;-77
2022/04/12 02:32:19;;;;;;;17.35;3.22;;;22.00;99.90;;;;;;5049891;28;20025;-77
2022/04/12 02:34:47;;;;;;;10.63;2.03;;;22.20;99.90;;;;;;5068034;23;20524;-76
2022/04/12 02:37:14;;;;;;;14.45;3.15;;;22.60;99.90;;;;;;5037042;28;20055;-77
2022/04/12 02:39:41;;;;;;;13.70;1.55;;;22.70;99.90;;;;;;5051084;28;20036;-77
2022/04/12 02:42:09;;;;;;;9.88;2.33;;;23.20;99.90;;;;;;5047931;28;20017;-76
2022/04/12 02:44:37;;;;;;;11.05;1.55;;;23.20;99.90;;;;;;5032992;28;20425;-77
2022/04/12 02:47:04;;;;;;;10.82;2.03;;;23.10;99.90;;;;;;5035637;28;20501;-76
2022/04/12 02:49:31;;;;;;;8.35;1.50;;;22.80;99.90;;;;;;5043950;28;20018;-77
2022/04/12 02:51:59;;;;;;;10.35;2.05;;;22.60;99.90;;;;;;5033975;28;20147;-78
2022/04/12 02:54:26;;;;;;;8.73;1.88;;;22.30;99.90;;;;;;5030133;28;22414;-77
2022/04/12 02:56:53;;;;;;;10.05;1.40;;;22.10;99.90;;;;;;5027977;28;20084;-76
2022/04/12 02:59:21;;;;;;;12.20;1.73;;;22.30;99.90;;;;;;5024229;28;20041;-76
2022/04/12 03:01:48;;;;;;;12.30;2.65;;;22.10;99.90;;;;;;5032422;28;20073;-76
2022/04/12 03:04:15;;;;;;;9.38;2.05;;;22.30;99.90;;;;;;5021432;28;20029;-76
2022/04/12 03:06:43;;;;;;;13.25;2.15;;;22.20;99.90;;;;;;5054311;23;20525;-75
2022/04/12 03:09:10;;;;;;;15.27;2.17;;;21.90;99.90;;;;;;5028740;28;20021;-77
2022/04/12 03:11:39;;;;;;;11.88;2.45;;;21.80;99.90;;;;;;5021397;28;20108;-76
2022/04/12 03:14:08;;;;;;;10.45;2.00;;;21.60;99.90;;;;;;5026831;28;20025;-75
2022/04/12 03:16:35;;;;;;;13.88;2.83;;;21.40;99.90;;;;;;5031990;28;20038;-77
2022/04/12 03:19:02;;;;;;;9.35;2.05;;;21.50;99.90;;;;;;5036571;28;20033;-75
2022/04/12 03:21:30;;;;;;;13.07;2.22;;;21.70;99.90;;;;;;5034160;28;20037;-76
2022/04/12 03:23:57;;;;;;;10.07;1.92;;;21.70;99.90;;;;;;5028361;28;20030;-76
2022/04/12 03:26:24;;;;;;;11.15;2.60;;;22.00;99.90;;;;;;5020549;28;20120;-75
2022/04/12 03:28:52;;;;;;;10.10;1.85;;;22.00;99.90;;;;;;5051717;28;20021;-76
2022/04/12 03:31:20;;;;;;;10.63;2.10;;;21.80;99.90;;;;;;5023000;28;20072;-75
2022/04/12 03:33:47;;;;;;;12.38;2.47;;;21.80;99.90;;;;;;5029185;28;20017;-76
2022/04/12 03:36:15;;;;;;;11.40;2.58;;;22.10;99.90;;;;;;5048396;28;20045;-76
2022/04/12 03:38:48;;;;;;;16.20;3.30;;;21.90;99.90;;;;;;5031481;28;20029;-76
2022/04/12 03:41:21;;;;;;;18.27;3.15;;;21.90;99.90;;;;;;5026909;28;20050;-75
2022/04/12 03:43:48;;;;;;;12.83;3.30;;;21.70;99.90;;;;;;5032426;28;20029;-75
2022/04/12 03:46:16;;;;;;;11.35;2.80;;;21.60;99.90;;;;;;5034312;28;20029;-75
2022/04/12 03:48:43;;;;;;;11.98;2.22;;;21.70;99.90;;;;;;5036445;28;20027;-77
2022/04/12 03:51:12;;;;;;;10.35;2.38;;;21.80;99.90;;;;;;5035868;28;20076;-76
2022/04/12 03:53:39;;;;;;;10.38;2.92;;;21.90;99.90;;;;;;5033886;28;20029;-76
2022/04/12 03:56:08;;;;;;;12.30;3.25;;;21.60;99.90;;;;;;5035679;28;20037;-76
2022/04/12 03:58:39;;;;;;;11.65;2.90;;;21.80;99.90;;;;;;5032462;28;20485;-76
2022/04/12 04:01:07;;;;;;;13.20;2.95;;;21.60;99.90;;;;;;5028006;28;20076;-76
2022/04/12 04:03:35;;;;;;;14.07;2.72;;;21.70;99.90;;;;;;5034847;28;20021;-75
2022/04/12 04:06:03;;;;;;;14.88;2.97;;;21.70;99.90;;;;;;5032792;28;20079;-75
2022/04/12 04:08:31;;;;;;;10.48;3.25;;;21.70;99.90;;;;;;5087855;23;20061;-77
2022/04/12 04:10:58;;;;;;;11.45;2.55;;;21.30;99.90;;;;;;5083921;22;20135;-77
2022/04/12 04:13:29;;;;;;;9.75;2.80;;;21.30;99.90;;;;;;5055440;28;20389;-76
2022/04/12 04:15:57;;;;;;;15.95;3.70;;;21.30;99.90;;;;;;5052908;28;20028;-77
2022/04/12 04:18:25;;;;;;;8.82;2.95;;;21.10;99.90;;;;;;5047672;22;20057;-77
2022/04/12 04:20:52;;;;;;;10.35;2.78;;;21.00;99.90;;;;;;5009420;28;20390;-78
2022/04/12 04:23:21;;;;;;;13.15;2.78;;;21.10;99.90;;;;;;5044528;23;20455;-77
2022/04/12 04:25:49;;;;;;;14.20;2.95;;;21.10;99.90;;;;;;5036042;28;20075;-77
2022/04/12 04:28:21;;;;;;;17.30;2.80;;;21.00;99.90;;;;;;5035022;28;20405;-77
2022/04/12 04:30:49;;;;;;;8.98;2.25;;;21.10;99.90;;;;;;5062768;23;20120;-77
2022/04/12 04:33:20;;;;;;;14.98;2.97;;;21.10;99.90;;;;;;5038061;28;20469;-76
2022/04/12 04:35:49;;;;;;;11.48;2.95;;;20.90;99.90;;;;;;5055243;28;20087;-77
2022/04/12 04:38:16;;;;;;;10.95;3.22;;;20.80;99.90;;;;;;5056584;28;20025;-76
2022/04/12 04:40:44;;;;;;;12.15;2.45;;;20.90;99.90;;;;;;5027750;28;20029;-75
2022/04/12 04:43:11;;;;;;;9.07;2.40;;;20.90;99.90;;;;;;5036339;28;20022;-76
2022/04/12 04:45:39;;;;;;;14.15;2.95;;;20.90;99.90;;;;;;5030754;28;20036;-77
2022/04/12 04:48:06;;;;;;;12.85;3.33;;;20.70;99.90;;;;;;5050149;28;20032;-77
2022/04/12 04:50:34;;;;;;;13.00;3.20;;;20.70;99.90;;;;;;5054532;28;20393;-78
2022/04/12 04:53:06;;;;;;;13.95;2.97;;;20.70;99.90;;;;;;5053647;28;20053;-79
2022/04/12 04:55:35;;;;;;;11.88;3.08;;;20.60;99.90;;;;;;5053128;23;20061;-78
2022/04/12 04:58:04;;;;;;;15.40;3.38;;;20.60;99.90;;;;;;5036258;28;20021;-75
2022/04/12 05:00:34;;;;;;;12.63;2.88;;;20.80;99.90;;;;;;5035702;28;20034;-77
2022/04/12 05:03:03;;;;;;;11.40;2.72;;;20.80;99.90;;;;;;5035075;28;20035;-76
2022/04/12 05:05:31;;;;;;;11.82;3.90;;;20.70;99.90;;;;;;5035293;28;20049;-79
2022/04/12 05:07:59;;;;;;;14.57;3.13;;;20.70;99.90;;;;;;5036473;28;20417;-78
2022/04/12 05:10:32;;;;;;;17.27;3.28;;;20.60;99.90;;;;;;5034624;28;20060;-79
2022/04/12 05:13:00;;;;;;;17.17;3.42;;;20.60;99.90;;;;;;5035164;28;20193;-77
2022/04/12 05:15:28;;;;;;;10.40;3.50;;;20.50;99.90;;;;;;5023510;28;20044;-77
2022/04/12 05:17:56;;;;;;;11.82;3.00;;;20.40;99.90;;;;;;5033152;28;20040;-78
2022/04/12 05:20:25;;;;;;;13.90;3.20;;;20.40;99.90;;;;;;5032088;28;20049;-77
2022/04/12 05:22:53;;;;;;;9.90;3.47;;;20.50;99.90;;;;;;5035243;28;20018;-77
2022/04/12 05:25:21;;;;;;;11.20;3.08;;;20.60;99.90;;;;;;5032347;28;20032;-77
2022/04/12 05:27:49;;;;;;;14.60;2.58;;;20.50;99.90;;;;;;5028935;28;20030;-79
2022/04/12 05:30:17;;;;;;;12.60;3.08;;;20.40;99.90;;;;;;5032758;23;20049;-78
2022/04/12 05:32:44;;;;;;;7.95;2.97;;;20.50;99.90;;;;;;5016795;28;20064;-77
2022/04/12 05:35:12;;;;;;;8.95;2.20;;;20.50;99.90;;;;;;5010753;28;20029;-73
2022/04/12 05:41:03;;;;;;;11.70;3.25;;;20.60;99.90;;;;;;5009248;28;20071;-73
2022/04/12 05:43:30;;;;;;;13.18;2.88;;;20.60;99.90;;;;;;4989821;28;20025;-73
2022/04/12 05:45:58;;;;;;;8.05;2.15;;;20.60;99.90;;;;;;5030303;28;20105;-73
2022/04/12 05:48:26;;;;;;;12.65;3.28;;;20.50;99.90;;;;;;5012164;28;20045;-73
2022/04/12 05:50:54;;;;;;;15.50;3.00;;;20.50;99.90;;;;;;5028454;28;20473;-73
2022/04/12 05:53:22;;;;;;;12.75;2.65;;;20.60;99.90;;;;;;4986738;28;20030;-72
2022/04/12 05:55:50;;;;;;;7.70;2.28;;;20.50;99.90;;;;;;4993549;28;20038;-73
2022/04/12 05:58:18;;;;;;;15.13;3.03;;;20.40;99.90;;;;;;5002682;28;20042;-73
2022/04/12 06:00:46;;;;;;;7.68;2.22;;;20.30;99.90;;;;;;4991996;28;20026;-72
2022/04/12 06:03:13;;;;;;;11.20;2.95;;;20.30;99.90;;;;;;5001537;28;20023;-73
2022/04/12 06:05:41;;;;;;;9.35;2.03;;;20.30;99.90;;;;;;4998878;28;20087;-72
2022/04/12 06:08:09;;;;;;;12.25;3.80;;;20.20;99.90;;;;;;4999173;28;20023;-73
2022/04/12 06:10:37;;;;;;;15.15;4.15;;;20.20;99.90;;;;;;5012393;28;20112;-74
2022/04/12 06:13:04;;;;;;;22.73;4.90;;;20.30;99.90;;;;;;4985035;28;20053;-73
2022/04/12 06:15:32;;;;;;;12.30;3.00;;;20.30;99.90;;;;;;5009273;28;20029;-72
2022/04/12 06:18:00;;;;;;;12.32;2.70;;;20.30;99.90;;;;;;5011998;28;20041;-74
2022/04/12 06:20:28;;;;;;;16.15;3.58;;;20.20;99.90;;;;;;4999789;28;20030;-73
2022/04/12 06:22:56;;;;;;;14.43;4.18;;;20.20;99.90;;;;;;4975638;28;20019;-73
2022/04/12 06:25:23;;;;;;;15.48;3.88;;;20.20;99.90;;;;;;4996767;28;20041;-74
2022/04/12 06:27:55;;;;;;;13.05;3.47;;;20.10;99.90;;;;;;4994405;28;20109;-74
2022/04/12 06:30:25;;;;;;;9.10;2.72;;;20.10;99.90;;;;;;4997024;23;20576;-72
2022/04/12 06:32:56;;;;;;;12.18;3.33;;;20.10;99.90;;;;;;5043102;22;20045;-73
2022/04/12 06:35:24;;;;;;;12.40;3.33;;;20.10;99.90;;;;;;5048219;23;20057;-73
2022/04/12 06:37:57;;;;;;;13.32;3.15;;;20.10;99.90;;;;;;5052532;22;20029;-73
2022/04/12 06:40:28;;;;;;;10.27;2.80;;;20.10;99.90;;;;;;4996052;28;20072;-72
2022/04/12 06:42:56;;;;;;;8.27;2.03;;;20.00;99.90;;;;;;5012590;28;20030;-73
2022/04/12 06:45:23;;;;;;;6.90;2.25;;;19.90;99.90;;;;;;4998104;28;20110;-72
2022/04/12 06:47:56;;;;;;;10.60;2.50;;;19.90;99.90;;;;;;5058103;22;20111;-73
2022/04/12 06:50:24;;;;;;;8.57;2.80;;;19.90;99.90;;;;;;5031932;28;20093;-73
2022/04/12 06:52:56;;;;;;;15.25;3.47;;;19.90;99.90;;;;;;5050751;28;20057;-71
2022/04/12 06:55:25;;;;;;;9.05;2.40;;;19.90;99.90;;;;;;5052828;28;20032;-73
2022/04/12 06:57:53;;;;;;;9.10;2.90;;;19.90;99.90;;;;;;5036947;28;20039;-72
2022/04/12 07:00:22;;;;;;;12.10;2.40;;;19.90;99.90;;;;;;5032791;28;20039;-72
2022/04/12 07:02:50;;;;;;;12.18;2.97;;;19.90;99.90;;;;;;5035436;28;20025;-73
2022/04/12 07:05:18;;;;;;;12.32;2.70;;;20.00;99.90;;;;;;5078468;22;20063;-72
2022/04/12 07:07:46;;;;;;;10.75;2.88;;;19.90;99.90;;;;;;5053405;28;20036;-73
2022/04/12 07:10:16;;;;;;;8.25;2.40;;;19.80;99.90;;;;;;5053391;28;20108;-73
2022/04/12 07:12:46;;;;;;;15.25;3.22;;;19.80;99.90;;;;;;5052825;28;20040;-74
2022/04/12 07:15:15;;;;;;;13.57;2.97;;;19.80;99.90;;;;;;5034637;28;20477;-72
2022/04/12 07:17:42;;;;;;;9.93;2.15;;;19.80;99.90;;;;;;5034233;28;20059;-72
2022/04/12 07:20:13;;;;;;;10.35;2.50;;;19.80;99.90;;;;;;5039270;28;20048;-73
2022/04/12 07:22:42;;;;;;;15.02;3.50;;;19.70;99.90;;;;;;5053109;28;20029;-73
2022/04/12 07:25:10;;;;;;;9.05;2.72;;;19.70;99.90;;;;;;5053255;28;20071;-73
2022/04/12 07:27:38;;;;;;;17.23;3.50;;;19.70;99.90;;;;;;5052959;28;20100;-73
2022/04/12 07:30:08;;;;;;;14.02;2.95;;;19.70;99.90;;;;;;5034265;28;20048;-72
2022/04/12 07:32:37;;;;;;;11.20;2.50;;;19.70;99.90;;;;;;5053594;28;20124;-73
2022/04/12 07:35:06;;;;;;;14.13;2.67;;;19.60;99.90;;;;;;5050905;28;20068;-73
2022/04/12 07:37:33;;;;;;;11.75;2.78;;;19.70;99.90;;;;;;5079417;22;20133;-73
2022/04/12 07:40:01;;;;;;;11.65;3.13;;;19.70;99.90;;;;;;5049354;28;20036;-73
2022/04/12 07:42:29;;;;;;;11.38;2.65;;;19.60;99.90;;;;;;5052526;28;20049;-74
2022/04/12 07:44:56;;;;;;;7.97;2.63;;;19.60;99.90;;;;;;5053022;28;20036;-73
2022/04/12 07:47:24;;;;;;;14.48;2.78;;;19.70;99.90;;;;;;5046163;28;20367;-78
2022/04/12 07:49:51;;;;;;;8.10;2.35;;;19.60;99.90;;;;;;5044247;28;20021;-78
2022/04/12 07:52:19;;;;;;;12.02;2.60;;;19.50;99.90;;;;;;5052880;28;20022;-78
2022/04/12 07:54:46;;;;;;;11.93;3.08;;;19.60;99.90;;;;;;5041354;28;20025;-78
2022/04/12 07:57:14;;;;;;;13.88;2.78;;;19.50;99.90;;;;;;5033928;28;20044;-76
2022/04/12 07:59:41;;;;;;;9.32;2.65;;;19.50;99.90;;;;;;5052865;28;20385;-69
2022/04/12 08:02:09;;;;;;;8.00;2.25;;;19.50;99.90;;;;;;5041913;28;20087;-76
2022/04/12 08:04:36;;;;;;;9.18;2.38;;;19.60;99.90;;;;;;5033775;28;20032;-77
2022/04/12 08:07:04;;;;;;;12.23;4.18;;;19.50;99.90;;;;;;5045415;28;20068;-77
2022/04/12 08:09:32;;;;;;;10.98;2.90;;;19.60;99.90;;;;;;5064857;28;20056;-79
2022/04/12 08:11:59;;;;;;;7.43;2.55;;;19.50;99.90;;;;;;5051034;28;20028;-78
2022/04/12 08:14:27;;;;;;;10.07;2.30;;;19.60;99.90;;;;;;5055250;28;20021;-79
2022/04/12 08:16:55;;;;;;;11.25;2.40;;;19.60;99.90;;;;;;5067313;28;20041;-80
2022/04/12 08:19:22;;;;;;;11.88;2.50;;;19.60;99.90;;;;;;5058545;28;20111;-79
2022/04/12 08:21:50;;;;;;;11.15;2.95;;;19.50;99.90;;;;;;5042553;28;20026;-78
2022/04/12 08:24:17;;;;;;;9.52;2.65;;;19.50;99.90;;;;;;5037998;28;20032;-78
2022/04/12 08:26:45;;;;;;;9.10;2.38;;;19.50;99.90;;;;;;5043346;28;20390;-73
2022/04/12 08:29:12;;;;;;;10.10;2.95;;;19.50;99.90;;;;;;5043077;28;20487;-74
2022/04/12 08:31:41;;;;;;;9.60;3.00;;;19.50;99.90;;;;;;5051887;28;20496;-74
2022/04/12 08:34:09;;;;;;;10.23;2.45;;;19.50;99.90;;;;;;5048003;28;20057;-73
2022/04/12 08:36:36;;;;;;;13.07;3.42;;;19.50;99.90;;;;;;5041934;28;20049;-77
2022/04/12 08:39:10;;;;;;;11.65;2.45;;;19.50;99.90;;;;;;5094125;23;20055;-77
2022/04/12 08:41:40;;;;;;;6.53;2.08;;;19.40;99.90;;;;;;5053976;23;20394;-77
2022/04/12 08:44:08;;;;;;;9.50;2.55;;;19.40;99.90;;;;;;5049398;28;20037;-78
2022/04/12 08:47:09;;;;;;;13.70;2.97;;;19.40;99.90;;;;;;5075067;22;20064;-78
2022/04/12 08:49:44;;;;;;;13.45;3.63;;;19.40;99.90;;;;;;5042656;28;20446;-78
2022/04/12 08:52:14;;;;;;;11.80;3.15;;;19.40;99.90;;;;;;5055068;28;20489;-78
2022/04/12 08:54:43;;;;;;;9.02;2.15;;;19.40;99.90;;;;;;5022924;22;20133;-77
2022/04/12 08:57:17;;;;;;;11.27;3.47;;;19.50;99.90;;;;;;4998852;28;20128;-77
2022/04/12 08:59:58;;;;;;;8.18;2.42;;;19.50;99.90;;;;;;5014198;28;20109;-78
2022/04/12 09:02:34;;;;;;;12.82;2.22;;;19.50;99.90;;;;;;5010834;28;20033;-77
2022/04/12 09:05:05;;;;;;;11.68;2.55;;;19.50;99.90;;;;;;5007369;28;20041;-75
2022/04/12 09:07:48;;;;;;;12.15;2.65;;;19.50;99.90;;;;;;5006618;28;20507;-78
2022/04/12 09:10:17;;;;;;;6.13;2.08;;;19.50;99.90;;;;;;4997493;28;20437;-79
2022/04/12 09:12:44;;;;;;;10.82;2.28;;;19.50;99.90;;;;;;5052911;23;20494;-73
2022/04/12 09:15:15;;;;;;;12.55;2.70;;;19.50;99.90;;;;;;5036852;28;20162;-77
2022/04/12 09:17:44;;;;;;;11.40;2.22;;;19.50;99.90;;;;;;5030477;28;20397;-79
2022/04/12 09:20:19;;;;;;;12.30;3.00;;;19.50;99.90;;;;;;5038016;28;20405;-79
2022/04/12 09:22:53;;;;;;;9.50;2.10;;;19.50;99.90;;;;;;5036538;28;20033;-78
2022/04/12 09:25:20;;;;;;;9.68;2.13;;;19.50;99.90;;;;;;5038721;28;20032;-79
2022/04/12 09:27:49;;;;;;;8.52;2.40;;;19.50;99.90;;;;;;5060312;28;20029;-79
2022/04/12 09:30:18;;;;;;;15.18;3.40;;;19.50;99.90;;;;;;5069141;28;20025;-79
2022/04/12 09:32:50;;;;;;;11.50;2.90;;;19.50;99.90;;;;;;5049475;28;20055;-78
2022/04/12 09:35:17;;;;;;;11.35;2.70;;;19.40;99.90;;;;;;5055956;28;20298;-77
2022/04/12 09:37:46;;;;;;;8.30;3.00;;;19.50;99.90;;;;;;5058082;28;20060;-78
2022/04/12 09:40:18;;;;;;;11.05;2.05;;;19.50;99.90;;;;;;5058494;28;20100;-79
2022/04/12 09:43:00;;;;;;;5.80;2.28;;;19.50;99.90;;;;;;5056052;28;20033;-79
2022/04/12 09:45:30;;;;;;;10.70;2.20;;;19.50;99.90;;;;;;5040490;28;20541;-78
2022/04/12 09:48:03;;;;;;;12.50;2.15;;;19.50;99.90;;;;;;5064791;22;20049;-79
2022/04/12 09:50:32;;;;;;;8.57;1.85;;;19.50;99.90;;;;;;5034379;28;20029;-77
2022/04/12 09:53:10;;;;;;;11.27;3.47;;;19.50;99.90;;;;;;5038266;28;20041;-79
2022/04/12 09:55:52;;;;;;;16.52;2.90;;;19.50;99.90;;;;;;5041868;28;20034;-79
2022/04/12 09:58:24;;;;;;;9.73;2.42;;;19.50;99.90;;;;;;5019914;28;20034;-79
2022/04/12 10:00:52;;;;;;;10.43;2.65;;;19.50;99.90;;;;;;5035560;28;20036;-78
2022/04/12 10:03:24;;;;;;;12.73;2.03;;;19.50;99.90;;;;;;5034178;28;20089;-79
2022/04/12 10:05:55;;;;;;;9.60;2.75;;;19.50;99.90;;;;;;5034016;28;20021;-80
2022/04/12 10:08:29;;;;;;;10.70;2.70;;;19.40;99.90;;;;;;5053676;28;20029;-78
2022/04/12 10:10:57;;;;;;;9.40;2.55;;;19.50;99.90;;;;;;5044578;28;20026;-78
2022/04/12 10:13:25;;;;;;;8.00;1.70;;;19.40;99.90;;;;;;5056491;28;20035;-79
2022/04/12 10:15:53;;;;;;;5.18;1.58;;;19.40;99.90;;;;;;5058892;28;20079;-79
2022/04/12 10:18:24;;;;;;;11.15;1.85;;;19.50;99.90;;;;;;5035814;28;20040;-79
2022/04/12 10:20:53;;;;;;;10.23;2.17;;;19.50;99.90;;;;;;5041609;28;20028;-79
2022/04/12 10:23:25;;;;;;;7.97;2.15;;;19.50;99.90;;;;;;5026252;28;20508;-79
2022/04/12 10:25:55;;;;;;;10.43;1.80;;;19.50;99.90;;;;;;5019300;28;20034;-79
2022/04/12 10:28:24;;;;;;;8.60;1.92;;;19.50;99.90;;;;;;5038219;28;20033;-78
2022/04/12 10:31:01;;;;;;;13.80;2.55;;;19.50;99.90;;;;;;5038586;28;20022;-77
2022/04/12 10:33:29;;;;;;;13.48;1.98;;;19.50;99.90;;;;;;5024336;28;20033;-78
2022/04/12 10:35:58;;;;;;;8.32;2.08;;;19.50;99.90;;;;;;5048116;28;20061;-79
2022/04/12 10:38:40;;;;;;;10.93;1.80;;;19.50;99.90;;;;;;5053728;28;20032;-79
2022/04/12 10:41:29;;;;;;;8.18;1.35;;;19.50;99.90;;;;;;5052819;28;20044;-79
2022/04/12 10:43:58;;;;;;;10.13;2.35;;;19.60;99.90;;;;;;5018244;28;20087;-79
2022/04/12 10:49:07;;;;;;;6.15;1.85;;;19.50;99.90;;;;;;5109896;23;20064;-79
2022/04/12 10:54:06;;;;;;;6.93;1.55;;;19.50;99.90;;;;;;5050348;28;20052;-76
2022/04/12 10:56:34;;;;;;;12.60;2.42;;;19.60;99.90;;;;;;5053033;28;20440;-79
2022/04/12 10:59:02;;;;;;;17.38;3.33;;;19.50;99.90;;;;;;5057524;28;20037;-78
2022/04/12 11:01:35;;;;;;;10.82;2.47;;;19.50;99.90;;;;;;5060201;28;20500;-78
2022/04/12 11:04:04;;;;;;;9.23;1.85;;;19.50;99.90;;;;;;5057883;28;20029;-80
2022/04/12 11:06:33;;;;;;;7.95;1.73;;;19.50;99.90;;;;;;5051813;28;20033;-80
2022/04/12 11:09:11;;;;;;;11.05;2.35;;;19.50;99.90;;;;;;5043207;28;20025;-79
2022/04/12 11:11:45;;;;;;;13.60;2.30;;;19.50;99.90;;;;;;5053033;28;20036;-79
2022/04/12 11:14:42;;;;;;;8.18;1.40;;;19.40;99.90;;;;;;5054430;28;20021;-79
2022/04/12 11:17:14;;;;;;;10.35;2.85;;;19.40;99.90;;;;;;5017872;28;20163;-79
2022/04/12 11:19:50;;;;;;;14.68;2.65;;;19.40;99.90;;;;;;5057423;28;20024;-79
2022/04/12 11:22:20;;;;;;;8.43;2.13;;;19.40;99.90;;;;;;5057083;28;20009;-79
2022/04/12 11:25:19;;;;;;;6.85;2.15;;;19.40;99.90;;;;;;5054709;28;20417;-79
2022/04/12 11:27:54;;;;;;;11.70;2.03;;;19.40;99.90;;;;;;5037144;23;20053;-81
2022/04/12 11:30:22;;;;;;;10.35;1.70;;;19.40;99.90;;;;;;5033056;28;20087;-80
2022/04/12 11:32:49;;;;;;;7.78;1.60;;;19.40;99.90;;;;;;5015364;28;20041;-79
2022/04/12 11:35:21;;;;;;;7.28;1.70;;;19.40;99.90;;;;;;5029025;28;20028;-79
2022/04/12 11:37:48;;;;;;;10.65;2.25;;;19.30;99.90;;;;;;5017737;28;20057;-79
2022/04/12 11:40:16;;;;;;;11.98;3.28;;;19.20;99.90;;;;;;5029804;28;20021;-79
2022/04/12 11:42:44;;;;;;;14.45;2.53;;;19.10;99.90;;;;;;5017408;28;20036;-80
2022/04/12 11:45:12;;;;;;;15.60;2.95;;;19.10;99.90;;;;;;5018383;28;20113;-80
2022/04/12 11:47:43;;;;;;;8.48;3.33;;;19.00;99.90;;;;;;5016713;28;20072;-80
2022/04/12 11:50:20;;;;;;;11.05;3.15;;;18.90;99.90;;;;;;5040483;28;20025;-79
2022/04/12 11:52:47;;;;;;;20.27;3.75;;;18.90;99.90;;;;;;5024218;28;20025;-79
2022/04/12 11:55:14;;;;;;;10.82;3.20;;;18.80;99.90;;;;;;5031975;28;20022;-79
2022/04/12 11:57:42;;;;;;;11.85;2.83;;;18.80;99.90;;;;;;5017201;28;20553;-80
2022/04/12 12:00:10;;;;;;;9.23;3.08;;;18.70;99.90;;;;;;5014409;28;20022;-79
2022/04/12 12:02:40;;;;;;;14.20;3.45;;;18.60;99.90;;;;;;5029035;28;20742;-79
2022/04/12 12:05:10;;;;;;;13.77;2.70;;;18.50;99.90;;;;;;5060887;23;20041;-79
2022/04/12 12:07:39;;;;;;;9.88;2.75;;;18.50;99.90;;;;;;5037738;28;20024;-79
2022/04/12 12:10:11;;;;;;;18.20;4.43;;;18.50;99.90;;;;;;5056351;28;20484;-80
2022/04/12 12:12:46;;;;;;;12.23;2.72;;;18.40;99.90;;;;;;5060266;28;20074;-79
2022/04/12 12:15:24;;;;;;;14.10;3.78;;;18.40;99.90;;;;;;5057431;28;20025;-79
2022/04/12 12:17:56;;;;;;;18.60;3.90;;;18.40;99.90;;;;;;5059501;28;20112;-80
2022/04/12 12:20:25;;;;;;;11.52;3.20;;;18.30;99.90;;;;;;5055908;28;20119;-79
2022/04/12 12:22:58;;;;;;;13.85;3.78;;;18.30;99.90;;;;;;5043703;28;20187;-79
2022/04/12 12:25:56;;;;;;;9.38;3.03;;;18.30;99.90;;;;;;5060591;28;20047;-78
2022/04/12 12:28:26;;;;;;;10.27;2.97;;;18.20;99.90;;;;;;5027730;28;20115;-80
2022/04/12 12:31:01;;;;;;;13.68;2.92;;;18.10;99.90;;;;;;5056010;28;20025;-79
2022/04/12 12:33:44;;;;;;;11.60;2.90;;;18.20;99.90;;;;;;5054131;28;20377;-79
2022/04/12 12:36:18;;;;;;;13.07;2.92;;;18.10;99.90;;;;;;5047575;22;20041;-78
2022/04/12 12:38:46;;;;;;;12.30;3.20;;;18.20;99.90;;;;;;5036549;28;20033;-79
2022/04/12 12:41:33;;;;;;;11.57;2.65;;;18.10;99.90;;;;;;5015329;28;20082;-79
2022/04/12 12:44:02;;;;;;;8.73;2.15;;;18.10;99.90;;;;;;5034746;28;20029;-79
2022/04/12 12:46:34;;;;;;;13.48;3.22;;;18.10;99.90;;;;;;5027820;28;20030;-79
2022/04/12 12:49:11;;;;;;;12.63;2.88;;;18.10;99.90;;;;;;5026678;28;20028;-79
2022/04/12 12:51:40;;;;;;;13.07;4.20;;;18.10;99.90;;;;;;5029598;28;20026;-79
2022/04/12 12:54:09;;;;;;;13.50;3.63;;;18.10;99.90;;;;;;5024361;28;20561;-79
2022/04/12 12:56:39;;;;;;;12.70;3.00;;;18.00;99.90;;;;;;5021689;28;20030;-79
2022/04/12 12:59:47;;;;;;;9.65;2.50;;;18.00;99.90;;;;;;5022874;28;20021;-79
2022/04/12 13:02:15;;;;;;;9.70;2.53;;;18.00;99.90;;;;;;4992884;28;20050;-79
2022/04/12 13:04:54;;;;;;;11.15;2.55;;;17.90;99.90;;;;;;5028099;28;20532;-79